ケープタウン国際空港の過去48時間の天気

ケープタウン国際空港 (Cape Town, Cape Town International Airport)

現在時刻: 8/4 12:34 SAST (8/4 10:34 UTC) 以下の時間は現地時間です。

過去48時間のMETAR気象情報
時間 風向 風速(m/s) 視程 気温(℃) 湿度(%) 気圧(hPa) 天気現象
4 12:00 南南西 7 10km以上 12 67 1028
4 11:00 7 10km以上 13 67 1028
4 10:57 7 10km以上 13 67 1028
4 10:00 南南西 5 10km以上 11 82 1027 弱い雨
4 09:00 南南西 4 10km以上 11 82 1026
4 08:00 南西 3 10km以上 11 82 1025
4 07:00 4 10km以上 11 87 1025
4 06:00 南西 4 10km以上 12 82 1024
4 05:00 南南西 5 10km以上 12 82 1024
4 04:00 3 10km以上 13 82 1023 弱い雨
4 03:00 南南西 4 10km以上 14 77 1023
4 02:00 不定 2 10km以上 13 94 1023
4 01:02 不定 1 10km以上 13 94 1023
4 00:03 不定 2 5000m 14 88 1023 弱い雨
3 23:00 北北西 2 8000m 12 94 1023 弱い雨
3 22:00 不定 1 10km以上 13 88 1022
3 21:00 西 3 10km以上 15 82 1022
3 20:00 北西 4 7000m 16 88 1022 弱い雨
3 19:00 北北西 3 10km以上 16 82 1021
3 18:00 北西 4 10km以上 17 77 1021
3 17:00 北西 5 10km以上 18 73 1021
3 16:00 北西 7 10km以上 18 68 1020
3 15:00 北西 7 10km以上 19 60 1021
3 14:00 北西 7 10km以上 18 68 1021
3 13:00 北西 6 10km以上 19 64 1021
3 12:29 北西 7 10km以上 19 64 1021
3 12:00 北西 6 10km以上 17 72 1021
3 11:00 北北西 6 10km以上 18 73 1022
3 10:00 北北東 4 10km以上 17 83 1021
3 09:00 不定 2 10km以上 14 94 1021
3 08:00 不定 2 10km以上 13 94 1021
3 07:00 北北東 5 10km以上 13 94 1020
3 06:00 北東 3 10km以上 12 100 1019
3 05:00 東北東 3 10km以上 13 94 1019
3 04:29 東北東 2 10km以上 13 100 1019
3 04:00 2 10km以上 14 100 1020
3 03:57 2 10km以上 14 100 1020
3 03:00 北北東 2 6000m 14 94 1020
3 02:25 北西 4 4000m 14 94 1020 もや
3 02:00 北西 6 800m 14 94 1019
3 01:58 北西 6 800m 14 94 1019
3 01:00 5 300m 13 100 1019
3 00:09 北北西 6 500m 13 100 1019
2 23:00 6 10km以上 14 88 1018
2 22:00 5 10km以上 14 94 1018
2 21:00 5 10km以上 14 88 1018
2 20:00 5 10km以上 14 88 1018
2 19:00 北北西 4 10km以上 15 82 1018
2 18:00 北西 4 10km以上 17 68 1017
2 17:00 北西 5 10km以上 19 60 1017
2 16:00 北西 6 10km以上 20 56 1017
2 15:00 北西 7 10km以上 21 49 1017
2 14:00 北西 7 10km以上 22 41 1017
2 13:00 北西 6 10km以上 23 38 1018
FACT 041000Z 20013KT 9999 FEW020 BKN040 12/06 Q1028 NOSIG
FACT 040900Z 19013KT 9999 RA FEW025 BKN040 13/07 Q1028 NOSIG
FACT 040857Z 19013KT 9999 RA FEW025 BKN040 13/07 Q1028 NOSIG
FACT 040800Z 21009KT 9999 -RA FEW025 BKN035 11/08 Q1027 NOSIG
FACT 040700Z 21007KT 9999 BKN035 11/08 Q1026 NOSIG
FACT 040600Z 22005KT 9999 BKN035 11/08 Q1025 NOSIG
FACT 040500Z 19007KT 9999 BKN025 11/09 Q1025 NOSIG
FACT 040400Z 22007KT 9999 FEW020 BKN025 12/09 Q1024 NOSIG
FACT 040300Z 20010KT 9999 FEW050 12/09 Q1024 NOSIG
FACT 040200Z VRB05KT 9999 -RA SCT025 BKN050 13/10 Q1023 TEMPO 4000 BKN012
FACT 040100Z 21007KT 9999 BKN030 14/10 Q1023 NOSIG
FACT 040000Z VRB03KT 9999 FEW020 BKN030 13/12 Q1023 NOSIG
FACT 032302Z VRB01KT 9999 FEW015 SCT030 13/12 Q1023 NOSIG
FACT 032203Z VRB03KT 5000 -RA FEW020 BKN030 14/12 Q1023 BECMG 8000
FACT 032100Z 33004KT 8000 -RA FEW035 BKN050 12/11 Q1023 TEMPO 5000 RA
FACT 032000Z VRB01KT CAVOK 13/11 Q1022 NOSIG
FACT 031900Z 28006KT 250V310 9999 FEW040 15/12 Q1022 NOSIG
FACT 031800Z 31008KT 7000 -RA BKN020 16/14 Q1022 NOSIG
FACT 031700Z 33006KT 300V360 9999 FEW030 16/13 Q1021 NOSIG
FACT 031600Z 31007KT 9999 FEW020 17/13 Q1021 NOSIG
FACT 031500Z 31010KT 9999 FEW020 18/13 Q1021 NOSIG
FACT 031400Z 31013KT 9999 FEW020 18/12 Q1020 NOSIG
FACT 031300Z 31013KT 9999 FEW030 19/11 Q1021 NOSIG
FACT 031200Z 31014KT 9999 SCT025 18/12 Q1021 NOSIG
FACT 031100Z 32012KT 9999 FEW025 19/12 Q1021 NOSIG
FACT 031029Z 32013KT 9999 FEW025 19/12 Q1021 NOSIG
FACT 031000Z 32011KT 9999 FEW030 17/12 Q1021 NOSIG
FACT 030900Z 33012KT 9999 BKN030 18/13 Q1022 NOSIG
FACT 030800Z 03007KT 9999 FEW030 17/14 Q1021 NOSIG
FACT 030700Z VRB03KT 9999 FEW025 SCT030 14/13 Q1021 NOSIG
FACT 030600Z VRB03KT 9999 BKN020 BKN025 13/12 Q1021 NOSIG
FACT 030500Z 02009KT 9999 BKN020 13/12 Q1020 BECMG BKN015
FACT 030400Z 05005KT 9999 SCT012 BKN020 12/12 Q1019 BECMG BKN015
FACT 030300Z 06006KT 9999 SCT010 BKN016 13/12 Q1019 BECMG BKN012
FACT 030229Z 07004KT 9999 SCT010 BKN020 13/13 Q1019 NOSIG
FACT 030200Z 36004KT 320V020 9999 SCT005 BKN012 14/14 Q1020 NOSIG
FACT 030157Z 36004KT 320V020 9999 SCT005 BKN012 14/14 Q1020 NOSIG
FACT 030100Z 02004KT 340V060 6000 BKN005 14/13 Q1020 TEMPO 5000 BR
FACT 030025Z 32007KT 280V350 4000 BR SCT003 14/13 Q1020 TEMPO BKN003
FACT 030000Z 32012KT 0800 FG BKN003 14/13 Q1019 BECMG 1000 BR
FACT 022358Z 32012KT 0800 FG BKN003 14/13 Q1019 BECMG 1000 BR
FACT 022300Z 01010KT 0300 R01/0600 FG OVC001 13/13 Q1019 BECMG 0500
FACT 022209Z 33011KT 0500 R01/0500 FG BKN002 13/13 Q1019 NOSIG
FACT 022100Z 35011KT CAVOK 14/12 Q1018 NOSIG
FACT 022000Z 36009KT CAVOK 14/13 Q1018 NOSIG
FACT 021900Z 36009KT CAVOK 14/12 Q1018 NOSIG
FACT 021800Z 35009KT CAVOK 14/12 Q1018 NOSIG
FACT 021700Z 34007KT CAVOK 15/12 Q1018 NOSIG
FACT 021600Z 32008KT CAVOK 17/11 Q1017 NOSIG
FACT 021500Z 31010KT CAVOK 19/11 Q1017 NOSIG
FACT 021400Z 32011KT CAVOK 20/11 Q1017 NOSIG
FACT 021300Z 31013KT CAVOK 21/10 Q1017 NOSIG
FACT 021200Z 32014KT CAVOK 22/08 Q1017 NOSIG
FACT 021100Z 31011KT CAVOK 23/08 Q1018 NOSIG